createdAt,value
2023-01-18T00:01:42.299Z,-2.86
2023-01-18T00:04:28.705Z,-2.98
2023-01-18T00:07:15.494Z,-3.03
2023-01-18T00:10:02.303Z,-3.08
2023-01-18T00:12:49.120Z,-3.12
2023-01-18T00:15:36.700Z,-3.14
2023-01-18T00:18:24.680Z,-3.15
2023-01-18T00:21:13.213Z,-3.19
2023-01-18T00:23:59.939Z,-3.16
2023-01-18T00:26:46.591Z,-3.02
2023-01-18T00:29:33.454Z,-3.09
2023-01-18T00:32:20.327Z,-3.15
2023-01-18T00:35:09.563Z,-3.02
2023-01-18T00:37:56.054Z,-3.10
2023-01-18T00:40:42.816Z,-3.16
2023-01-18T00:43:41.604Z,-3.33
2023-01-18T00:46:28.551Z,-3.25
2023-01-18T00:49:15.106Z,-3.13
2023-01-18T00:52:03.200Z,-2.77
2023-01-18T00:54:51.223Z,-2.98
2023-01-18T00:57:38.051Z,-3.10
2023-01-18T01:00:27.185Z,-3.08
2023-01-18T01:03:14.688Z,-2.97
2023-01-18T01:06:19.394Z,-2.91
2023-01-18T01:09:07.542Z,-3.03
2023-01-18T01:12:12.821Z,-3.11
2023-01-18T01:15:16.937Z,-3.89
2023-01-18T01:18:20.894Z,-3.20
2023-01-18T01:21:25.649Z,-3.21
2023-01-18T01:24:31.224Z,-3.18
2023-01-18T01:27:18.607Z,-3.13
2023-01-18T01:30:06.375Z,-3.02
2023-01-18T01:32:52.867Z,-3.10
2023-01-18T01:35:39.723Z,-3.09
2023-01-18T01:38:27.101Z,-3.12
2023-01-18T01:41:18.571Z,-3.09
2023-01-18T01:44:45.049Z,-3.10
2023-01-18T01:47:40.969Z,-3.01
2023-01-18T01:50:30.658Z,-3.07
2023-01-18T01:53:17.647Z,-3.12
2023-01-18T01:56:05.342Z,-3.07
2023-01-18T01:58:57.494Z,-3.05
2023-01-18T02:01:44.821Z,-3.03
2023-01-18T02:04:31.954Z,-3.03
2023-01-18T02:07:18.819Z,-2.99
2023-01-18T02:10:07.069Z,-3.08
2023-01-18T02:12:55.378Z,-3.16
2023-01-18T02:15:50.934Z,-3.23
2023-01-18T02:18:45.441Z,-3.26
2023-01-18T02:21:37.815Z,-3.19
2023-01-18T02:24:59.236Z,-3.21
2023-01-18T02:27:52.289Z,-3.32
2023-01-18T02:30:46.956Z,-3.35
2023-01-18T02:33:43.658Z,-3.32
2023-01-18T02:36:39.144Z,-3.25
2023-01-18T02:39:43.998Z,-3.22
2023-01-18T02:42:50.104Z,-3.17
2023-01-18T02:46:00.249Z,-3.14
2023-01-18T02:48:49.437Z,-3.09
2023-01-18T02:51:37.035Z,-3.38
2023-01-18T02:54:25.205Z,-3.02
2023-01-18T02:57:16.785Z,-2.99
2023-01-18T03:00:10.416Z,-2.90
2023-01-18T03:03:00.284Z,-2.88
2023-01-18T03:05:49.435Z,-2.88
2023-01-18T03:08:39.748Z,-2.74
2023-01-18T03:11:37.513Z,-2.81
2023-01-18T03:14:32.322Z,-2.80
2023-01-18T03:17:23.330Z,-2.80
2023-01-18T03:20:15.577Z,-3.16
2023-01-18T03:23:29.447Z,-2.85
2023-01-18T03:26:20.620Z,-2.72
2023-01-18T03:29:25.528Z,-2.80
2023-01-18T03:32:33.039Z,-2.80
2023-01-18T03:35:26.823Z,-2.56
2023-01-18T03:38:14.881Z,-2.55
2023-01-18T03:41:03.137Z,-2.63
2023-01-18T03:43:53.306Z,-2.72
2023-01-18T03:46:43.903Z,-2.78
2023-01-18T03:49:31.315Z,-2.92
2023-01-18T03:52:25.020Z,-2.96
2023-01-18T03:55:19.174Z,-2.99
2023-01-18T03:58:11.731Z,-2.71
2023-01-18T04:00:58.433Z,-2.77
2023-01-18T04:03:44.999Z,-2.87
2023-01-18T04:06:35.674Z,-2.89
2023-01-18T04:09:23.911Z,-2.92
2023-01-18T04:12:10.649Z,-2.92
2023-01-18T04:14:58.299Z,-2.90
2023-01-18T04:17:44.760Z,-2.86
2023-01-18T04:20:31.491Z,-2.85
2023-01-18T04:23:18.398Z,-2.83
2023-01-18T04:26:06.686Z,-2.57
2023-01-18T04:28:53.543Z,-2.67
2023-01-18T04:31:40.489Z,-2.66
2023-01-18T04:34:27.189Z,-2.70
2023-01-18T04:37:13.969Z,-2.72
2023-01-18T04:40:00.886Z,-2.77
2023-01-18T04:42:54.491Z,-2.78
2023-01-18T04:45:41.408Z,-2.78
2023-01-18T04:48:28.196Z,-2.79
2023-01-18T04:51:15.820Z,-2.79
2023-01-18T04:54:02.432Z,-2.49
2023-01-18T04:56:49.085Z,-2.28
2023-01-18T04:59:39.288Z,-2.46
2023-01-18T05:02:26.105Z,-2.57
2023-01-18T05:05:12.773Z,-2.60
2023-01-18T05:07:59.371Z,-2.37
2023-01-18T05:10:46.199Z,-2.29
2023-01-18T05:13:32.947Z,-2.57
2023-01-18T05:16:23.951Z,-2.66
2023-01-18T05:19:10.549Z,-2.74
2023-01-18T05:21:57.568Z,-2.76
2023-01-18T05:24:44.743Z,-2.71
2023-01-18T05:27:31.501Z,-2.64
2023-01-18T05:30:18.817Z,-2.66
2023-01-18T05:33:07.045Z,-2.64
2023-01-18T05:35:55.153Z,-2.42
2023-01-18T05:38:41.948Z,-2.47
2023-01-18T05:41:28.679Z,-2.61
2023-01-18T05:44:15.489Z,-2.55
2023-01-18T05:47:02.382Z,-2.38
2023-01-18T05:49:51.130Z,-2.40
2023-01-18T05:52:38.029Z,-2.53
2023-01-18T05:55:24.547Z,-2.67
2023-01-18T05:58:11.759Z,-2.75
2023-01-18T06:00:58.746Z,-2.61
2023-01-18T06:03:45.247Z,-2.72
2023-01-18T06:06:34.744Z,-2.70
2023-01-18T06:09:21.647Z,-2.57
2023-01-18T06:12:08.751Z,-2.51
2023-01-18T06:14:55.396Z,-2.50
2023-01-18T06:17:42.646Z,-2.66
2023-01-18T06:20:30.617Z,-2.75
2023-01-18T06:23:18.714Z,-2.78
2023-01-18T06:26:05.536Z,-2.78
2023-01-18T06:28:52.102Z,-2.80
2023-01-18T06:31:39.093Z,-2.74
2023-01-18T06:34:25.763Z,-2.71
2023-01-18T06:37:13.040Z,-2.76
2023-01-18T06:40:02.791Z,-2.77
2023-01-18T06:42:50.232Z,-2.55
2023-01-18T06:45:36.990Z,-2.65
2023-01-18T06:48:24.578Z,-2.52
2023-01-18T06:51:12.564Z,-2.61
2023-01-18T06:53:59.236Z,-2.67
2023-01-18T06:56:48.327Z,-2.69
2023-01-18T06:59:35.007Z,-2.69
2023-01-18T07:02:22.858Z,-2.65
2023-01-18T07:05:10.352Z,-2.66
2023-01-18T07:07:56.868Z,-3.37
2023-01-18T07:10:43.636Z,-2.59
2023-01-18T07:13:31.711Z,-2.61
2023-01-18T07:16:19.381Z,-2.49
2023-01-18T07:19:06.452Z,-2.30
2023-01-18T07:21:53.814Z,-2.27
2023-01-18T07:24:40.959Z,-2.37
2023-01-18T07:27:28.364Z,-2.33
2023-01-18T07:30:17.982Z,-2.23
2023-01-18T07:33:07.094Z,-2.24
2023-01-18T07:35:54.355Z,-2.25
2023-01-18T07:38:41.398Z,-2.18
2023-01-18T07:41:30.148Z,-2.14
2023-01-18T07:44:17.870Z,-2.26
2023-01-18T07:47:08.022Z,-2.26
2023-01-18T07:49:54.672Z,-2.24
2023-01-18T07:52:41.650Z,-2.24
2023-01-18T07:55:28.354Z,-2.25
2023-01-18T07:58:15.067Z,-2.38
2023-01-18T08:01:05.876Z,-2.28
2023-01-18T08:03:54.869Z,-2.27
2023-01-18T08:06:41.591Z,-2.26
2023-01-18T08:09:28.256Z,-2.24
2023-01-18T08:12:18.194Z,-2.23
2023-01-18T08:15:05.787Z,-2.13
2023-01-18T08:17:52.307Z,-2.13
2023-01-18T08:20:40.736Z,-1.87
2023-01-18T08:23:27.549Z,-1.83
2023-01-18T08:26:15.361Z,-1.89
2023-01-18T08:29:02.317Z,-1.90
2023-01-18T08:31:52.471Z,-1.76
2023-01-18T08:34:39.057Z,-1.42
2023-01-18T08:37:27.586Z,-1.28
2023-01-18T08:40:14.431Z,-1.32
2023-01-18T08:43:03.411Z,-1.40
2023-01-18T08:45:51.542Z,-1.40
2023-01-18T08:48:38.170Z,-1.34
2023-01-18T08:51:26.229Z,-1.19
2023-01-18T08:54:14.636Z,-1.27
2023-01-18T08:57:02.352Z,-1.20
2023-01-18T08:59:49.238Z,-1.16
2023-01-18T09:02:35.983Z,-1.03
2023-01-18T09:05:22.791Z,-0.92
2023-01-18T09:08:09.586Z,-0.77
2023-01-18T09:11:03.014Z,-0.78
2023-01-18T09:14:00.180Z,-1.13
2023-01-18T09:16:47.878Z,-0.60
2023-01-18T09:19:34.551Z,-0.56
2023-01-18T09:22:21.430Z,-0.42
2023-01-18T09:25:08.402Z,-0.28
2023-01-18T09:27:56.362Z,-0.04
2023-01-18T09:30:43.173Z,-0.03
2023-01-18T09:33:37.623Z,-0.04
2023-01-18T09:36:26.974Z,0.02
2023-01-18T09:39:13.910Z,0.04
2023-01-18T09:42:04.668Z,0.19
2023-01-18T09:44:55.063Z,0.48
2023-01-18T09:47:47.443Z,0.51
2023-01-18T09:50:39.660Z,0.62
2023-01-18T09:53:43.020Z,0.81
2023-01-18T09:56:33.787Z,0.91
2023-01-18T09:59:28.857Z,0.91
2023-01-18T10:02:23.897Z,1.01
2023-01-18T10:05:14.251Z,1.10
2023-01-18T10:08:07.755Z,1.13
2023-01-18T10:11:18.782Z,1.39
2023-01-18T10:14:15.378Z,1.40
2023-01-18T10:17:07.369Z,1.45
2023-01-18T10:19:55.569Z,1.34
2023-01-18T10:22:49.873Z,1.24
2023-01-18T10:25:43.411Z,1.41
2023-01-18T10:28:40.415Z,1.49
2023-01-18T10:31:39.700Z,1.44
2023-01-18T10:34:31.816Z,1.35
2023-01-18T10:37:33.518Z,1.24
2023-01-18T10:40:20.303Z,1.40
2023-01-18T10:43:12.336Z,1.53
2023-01-18T10:45:59.291Z,1.82
2023-01-18T10:48:48.212Z,1.78
2023-01-18T10:51:36.681Z,1.71
2023-01-18T10:54:27.941Z,1.81
2023-01-18T10:57:22.516Z,2.00
2023-01-18T11:00:21.543Z,2.05
2023-01-18T11:03:14.651Z,1.93
2023-01-18T11:06:05.461Z,1.84
2023-01-18T11:08:52.525Z,1.91
2023-01-18T11:11:57.883Z,1.98
2023-01-18T11:14:44.742Z,2.00
2023-01-18T11:17:32.276Z,2.06
2023-01-18T11:20:21.860Z,2.14
2023-01-18T11:23:18.650Z,2.41
2023-01-18T11:26:09.269Z,2.46
2023-01-18T11:29:01.205Z,2.15
2023-01-18T11:31:50.295Z,2.11
2023-01-18T11:34:41.194Z,2.00
2023-01-18T11:37:34.643Z,2.22
2023-01-18T11:40:28.117Z,2.10
2023-01-18T11:43:18.876Z,2.01
2023-01-18T11:46:22.828Z,1.93
2023-01-18T11:49:23.013Z,1.95
2023-01-18T11:52:18.660Z,1.76
2023-01-18T11:55:12.690Z,2.18
2023-01-18T11:58:00.852Z,2.22
2023-01-18T12:01:15.106Z,2.14
2023-01-18T12:04:08.431Z,2.29
2023-01-18T12:07:12.054Z,2.23
2023-01-18T12:10:01.778Z,2.29
2023-01-18T12:13:13.702Z,2.39
2023-01-18T12:16:09.458Z,2.18
2023-01-18T12:19:31.329Z,2.48
2023-01-18T12:22:49.438Z,2.59
2023-01-18T12:25:49.270Z,2.44
2023-01-18T12:28:50.558Z,2.49
2023-01-18T12:31:53.178Z,2.53
2023-01-18T12:34:43.094Z,2.57
2023-01-18T12:37:43.858Z,2.63
2023-01-18T12:40:45.869Z,2.64
2023-01-18T12:43:45.468Z,2.51
2023-01-18T12:46:40.098Z,2.41
2023-01-18T12:49:31.072Z,2.25
2023-01-18T12:52:22.395Z,2.21
2023-01-18T12:55:21.276Z,2.09
2023-01-18T12:58:17.939Z,2.11
2023-01-18T13:01:08.687Z,2.13
2023-01-18T13:04:01.613Z,2.05
2023-01-18T13:06:50.431Z,1.95
2023-01-18T13:09:43.879Z,1.90
2023-01-18T13:12:33.164Z,1.83
2023-01-18T13:15:29.934Z,1.86
2023-01-18T13:18:21.965Z,1.79
2023-01-18T13:21:14.147Z,1.68
2023-01-18T13:24:12.623Z,1.59
2023-01-18T13:27:18.683Z,1.53
2023-01-18T13:30:19.318Z,1.49
2023-01-18T13:33:13.925Z,1.48
2023-01-18T13:36:05.480Z,1.66
2023-01-18T13:38:55.198Z,1.75
2023-01-18T13:42:10.334Z,1.61
2023-01-18T13:45:19.276Z,1.58
2023-01-18T13:48:27.536Z,1.49
2023-01-18T13:51:43.839Z,1.37
2023-01-18T13:55:01.257Z,1.29
2023-01-18T13:57:55.169Z,0.97
2023-01-18T14:00:48.719Z,1.24
2023-01-18T14:03:38.508Z,1.20
2023-01-18T14:06:32.235Z,1.16
2023-01-18T14:09:29.452Z,1.15
2023-01-18T14:12:16.033Z,1.13
2023-01-18T14:15:04.585Z,1.11
2023-01-18T14:17:58.652Z,1.16
2023-01-18T14:20:55.276Z,1.15
2023-01-18T14:24:14.579Z,1.15
2023-01-18T14:27:02.604Z,1.17
2023-01-18T14:29:53.365Z,1.10
2023-01-18T14:32:47.037Z,1.02
2023-01-18T14:35:33.812Z,0.99
2023-01-18T14:38:21.573Z,0.98
2023-01-18T14:41:10.058Z,0.97
2023-01-18T14:43:56.631Z,0.97
2023-01-18T14:46:44.232Z,0.94
2023-01-18T14:49:35.382Z,0.91
2023-01-18T14:52:33.161Z,0.88
2023-01-18T14:55:30.105Z,0.82
2023-01-18T14:58:18.940Z,0.81
2023-01-18T15:01:10.820Z,0.80
2023-01-18T15:03:59.397Z,0.62
2023-01-18T15:06:51.013Z,0.78
2023-01-18T15:09:40.886Z,0.73
2023-01-18T15:12:34.059Z,0.69
2023-01-18T15:15:26.115Z,0.65
2023-01-18T15:18:19.095Z,0.66
2023-01-18T15:21:12.851Z,0.42
2023-01-18T15:24:04.229Z,0.62
2023-01-18T15:26:54.667Z,0.58
2023-01-18T15:29:42.277Z,0.55
2023-01-18T15:32:31.163Z,0.53
2023-01-18T15:35:22.690Z,0.50
2023-01-18T15:38:10.861Z,0.52
2023-01-18T15:41:03.617Z,0.48
2023-01-18T15:43:51.117Z,0.47
2023-01-18T15:46:39.719Z,0.43
2023-01-18T15:49:26.644Z,0.37
2023-01-18T15:52:13.421Z,0.46
2023-01-18T15:55:00.260Z,0.46
2023-01-18T15:57:58.094Z,0.41
2023-01-18T16:00:50.334Z,0.43
2023-01-18T16:03:39.716Z,0.39
2023-01-18T16:06:32.961Z,0.35
2023-01-18T16:09:23.169Z,0.32
2023-01-18T16:12:09.774Z,0.31
2023-01-18T16:14:57.855Z,0.31
2023-01-18T16:17:46.077Z,0.23
2023-01-18T16:20:35.336Z,0.25
2023-01-18T16:23:23.392Z,0.24
2023-01-18T16:26:16.356Z,0.24
2023-01-18T16:29:10.726Z,0.23
2023-01-18T16:32:29.177Z,0.23
2023-01-18T16:35:17.671Z,0.22
2023-01-18T16:38:04.771Z,0.19
2023-01-18T16:40:52.140Z,0.19
2023-01-18T16:43:39.064Z,0.17
2023-01-18T16:46:25.958Z,0.19
2023-01-18T16:49:15.297Z,0.27
2023-01-18T16:52:03.493Z,0.28
2023-01-18T16:54:50.087Z,0.28
2023-01-18T16:57:36.892Z,0.28
2023-01-18T17:00:31.417Z,0.30
2023-01-18T17:03:18.413Z,0.37
2023-01-18T17:06:07.032Z,0.59
2023-01-18T17:08:53.879Z,0.88
2023-01-18T17:11:40.834Z,0.84
2023-01-18T17:14:27.545Z,0.61
2023-01-18T17:17:16.547Z,0.53
2023-01-18T17:20:12.296Z,0.56
2023-01-18T17:23:01.153Z,0.50
2023-01-18T17:25:48.375Z,0.40
2023-01-18T17:28:35.018Z,0.35
2023-01-18T17:31:21.656Z,0.32
2023-01-18T17:34:11.445Z,0.31
2023-01-18T17:37:00.653Z,0.23
2023-01-18T17:40:02.449Z,0.22
2023-01-18T17:42:55.458Z,0.14
2023-01-18T17:45:45.835Z,0.10
2023-01-18T17:48:35.258Z,0.07
2023-01-18T17:51:25.738Z,0.08
2023-01-18T17:54:20.739Z,0.02
2023-01-18T17:57:10.590Z,0.06
2023-01-18T18:00:04.395Z,-0.01
2023-01-18T18:02:57.376Z,-0.08
2023-01-18T18:05:45.386Z,-0.14
2023-01-18T18:08:32.281Z,-0.17
2023-01-18T18:11:18.980Z,-0.24
2023-01-18T18:14:07.224Z,-0.23
2023-01-18T18:16:54.155Z,-0.31
2023-01-18T18:19:41.449Z,-0.36
2023-01-18T18:22:29.119Z,-0.42
2023-01-18T18:25:17.602Z,-0.47
2023-01-18T18:28:04.696Z,-0.53
2023-01-18T18:30:53.225Z,-0.60
2023-01-18T18:33:39.984Z,-0.65
2023-01-18T18:36:27.378Z,-0.72
2023-01-18T18:39:16.374Z,-0.76
2023-01-18T18:42:03.407Z,-0.89
2023-01-18T18:44:49.812Z,-0.89
2023-01-18T18:47:38.938Z,-0.97
2023-01-18T18:50:25.575Z,-1.59
2023-01-18T18:53:12.305Z,-1.00
2023-01-18T18:56:00.296Z,-1.04
2023-01-18T18:58:51.028Z,-1.08
2023-01-18T19:01:38.102Z,-1.15
2023-01-18T19:04:26.850Z,-1.18
2023-01-18T19:07:16.594Z,-1.24
2023-01-18T19:10:04.325Z,-1.27
2023-01-18T19:12:51.209Z,-1.29
2023-01-18T19:15:38.064Z,-1.18
2023-01-18T19:18:24.649Z,-1.30
2023-01-18T19:21:13.007Z,-1.38
2023-01-18T19:24:00.217Z,-1.47
2023-01-18T19:26:47.479Z,-1.40
2023-01-18T19:29:35.435Z,-1.46
2023-01-18T19:32:22.909Z,-1.44
2023-01-18T19:35:11.145Z,-1.46
2023-01-18T19:38:01.131Z,-1.54
2023-01-18T19:40:48.494Z,-1.61
2023-01-18T19:43:36.009Z,-1.64
2023-01-18T19:46:23.065Z,-1.59
2023-01-18T19:49:10.551Z,-1.63
2023-01-18T19:51:57.777Z,-1.72
2023-01-18T19:54:46.861Z,-1.77
2023-01-18T19:57:35.775Z,-1.78
2023-01-18T20:00:23.179Z,-1.83
2023-01-18T20:03:14.818Z,-1.88
2023-01-18T20:06:02.690Z,-1.92
2023-01-18T20:08:54.517Z,-1.99
2023-01-18T20:11:43.215Z,-2.05
2023-01-18T20:14:40.971Z,-2.02
2023-01-18T20:17:28.845Z,-2.08
2023-01-18T20:20:24.204Z,-2.11
2023-01-18T20:23:18.633Z,-2.11
2023-01-18T20:26:06.807Z,-2.15
2023-01-18T20:28:56.148Z,-2.21
2023-01-18T20:31:49.452Z,-2.27
2023-01-18T20:34:36.923Z,-2.30
2023-01-18T20:37:24.065Z,-2.34
2023-01-18T20:40:14.939Z,-2.33
2023-01-18T20:43:02.684Z,-2.39
2023-01-18T20:46:00.607Z,-2.44
2023-01-18T20:48:47.523Z,-2.45
2023-01-18T20:51:34.988Z,-2.69
2023-01-18T20:54:21.846Z,-2.57
2023-01-18T20:57:09.596Z,-2.60
2023-01-18T20:59:56.913Z,-2.55
2023-01-18T21:02:45.114Z,-2.42
2023-01-18T21:05:31.772Z,-2.50
2023-01-18T21:08:19.690Z,-2.66
2023-01-18T21:11:07.010Z,-2.74
2023-01-18T21:13:55.923Z,-3.09
2023-01-18T21:16:42.332Z,-2.81
2023-01-18T21:19:30.481Z,-2.82
2023-01-18T21:22:17.255Z,-2.77
2023-01-18T21:25:03.791Z,-2.85
2023-01-18T21:27:50.718Z,-2.88
2023-01-18T21:30:37.717Z,-2.99
2023-01-18T21:33:25.198Z,-2.99
2023-01-18T21:36:17.507Z,-2.96
2023-01-18T21:39:04.235Z,-2.88
2023-01-18T21:42:08.376Z,-2.97
2023-01-18T21:45:12.613Z,-3.05
2023-01-18T21:48:01.148Z,-3.07
2023-01-18T21:51:05.563Z,-3.00
2023-01-18T21:54:10.917Z,-3.06
2023-01-18T21:56:59.290Z,-3.05
2023-01-18T21:59:46.585Z,-3.14
2023-01-18T22:02:33.574Z,-3.17
2023-01-18T22:05:20.337Z,-3.23
2023-01-18T22:08:06.942Z,-3.16
2023-01-18T22:10:55.010Z,-3.16
2023-01-18T22:13:41.899Z,-3.26
2023-01-18T22:16:30.733Z,-3.22
2023-01-18T22:19:19.202Z,-3.25
2023-01-18T22:22:05.999Z,-3.29
2023-01-18T22:24:52.742Z,-3.26
2023-01-18T22:27:43.072Z,-3.23
2023-01-18T22:30:30.930Z,-3.25
2023-01-18T22:33:18.775Z,-3.20
2023-01-18T22:36:07.171Z,-3.35
2023-01-18T22:38:55.400Z,-3.20
2023-01-18T22:41:42.469Z,-3.20
2023-01-18T22:44:30.459Z,-3.25
2023-01-18T22:47:16.945Z,-3.32
2023-01-18T22:50:05.747Z,-3.29
2023-01-18T22:52:52.990Z,-3.37
2023-01-18T22:55:39.590Z,-3.32
2023-01-18T22:58:26.272Z,-3.33
2023-01-18T23:01:21.401Z,-3.33
2023-01-18T23:04:07.827Z,-3.34
2023-01-18T23:06:56.255Z,-3.28
2023-01-18T23:09:43.079Z,-3.26
2023-01-18T23:12:29.688Z,-3.24
2023-01-18T23:15:34.456Z,-3.32
2023-01-18T23:18:22.479Z,-3.30
2023-01-18T23:21:09.204Z,-3.25
2023-01-18T23:23:56.030Z,-3.31
2023-01-18T23:26:42.927Z,-3.33
2023-01-18T23:29:29.729Z,-3.25
2023-01-18T23:32:16.516Z,-3.31
2023-01-18T23:35:06.022Z,-3.22
2023-01-18T23:37:54.885Z,-3.17
2023-01-18T23:41:00.177Z,-3.19
2023-01-18T23:44:05.207Z,-3.21
2023-01-18T23:47:10.547Z,-3.22
2023-01-18T23:50:17.296Z,-3.21
2023-01-18T23:53:24.317Z,-3.20
2023-01-18T23:56:12.789Z,-3.23
2023-01-18T23:59:00.031Z,-3.22
